createdAt,value
2018-11-04T00:00:32.351Z,96920.55
2018-11-04T00:03:01.920Z,96917.66
2018-11-04T00:05:29.158Z,96909.32
2018-11-04T00:07:58.377Z,96919.17
2018-11-04T00:10:27.400Z,96913.98
2018-11-04T00:12:54.820Z,96904.19
2018-11-04T00:15:22.348Z,96898.11
2018-11-04T00:17:50.967Z,96898.24
2018-11-04T00:20:18.307Z,96905.22
2018-11-04T00:22:48.775Z,96908.41
2018-11-04T00:25:16.130Z,96900.38
2018-11-04T00:27:43.458Z,96901.52
2018-11-04T00:30:13.043Z,96896.12
2018-11-04T00:32:45.885Z,96898.73
2018-11-04T00:35:13.564Z,96895.11
2018-11-04T00:37:43.033Z,96891.57
2018-11-04T00:40:11.729Z,96894.47
2018-11-04T00:42:39.630Z,96895.69
2018-11-04T00:45:12.088Z,96889.42
2018-11-04T00:47:45.492Z,96890.34
2018-11-04T00:50:15.469Z,96897.22
2018-11-04T00:52:43.448Z,96895.38
2018-11-04T00:55:11.400Z,96883.74
2018-11-04T00:57:39.060Z,96877.33
2018-11-04T01:00:10.327Z,96879.20
2018-11-04T01:02:39.998Z,96871.75
2018-11-04T01:05:08.467Z,96872.47
2018-11-04T01:07:37.036Z,96866.16
2018-11-04T01:10:06.810Z,96860.22
2018-11-04T01:12:36.508Z,96857.25
2018-11-04T01:15:05.348Z,96847.38
2018-11-04T01:17:33.156Z,96851.84
2018-11-04T01:20:01.075Z,96851.27
2018-11-04T01:22:28.819Z,96844.22
2018-11-04T01:24:56.376Z,96842.55
2018-11-04T01:27:23.821Z,96842.06
2018-11-04T01:29:53.405Z,96834.89
2018-11-04T01:32:21.012Z,96833.23
2018-11-04T01:34:49.616Z,96830.27
2018-11-04T01:37:18.171Z,96824.56
2018-11-04T01:39:46.732Z,96825.31
2018-11-04T01:42:14.202Z,96814.34
2018-11-04T01:44:41.824Z,96812.76
2018-11-04T01:47:11.507Z,96805.88
2018-11-04T01:49:38.991Z,96800.11
2018-11-04T01:52:07.220Z,96795.46
2018-11-04T01:54:34.809Z,96795.83
2018-11-04T01:57:03.544Z,96794.89
2018-11-04T01:59:36.031Z,96791.19
2018-11-04T02:02:03.665Z,96790.53
2018-11-04T02:04:33.098Z,96793.78
2018-11-04T02:07:00.872Z,96792.47
2018-11-04T02:09:28.310Z,96763.89
2018-11-04T02:11:55.528Z,96786.80
2018-11-04T02:14:23.919Z,96783.11
2018-11-04T02:16:51.800Z,96783.56
2018-11-04T02:19:19.270Z,96776.30
2018-11-04T02:21:47.050Z,96776.72
2018-11-04T02:24:17.717Z,96770.80
2018-11-04T02:26:48.183Z,96768.39
2018-11-04T02:29:15.830Z,96757.42
2018-11-04T02:31:44.406Z,96750.38
2018-11-04T02:34:13.509Z,96753.02
2018-11-04T02:36:44.235Z,96751.90
2018-11-04T02:39:11.484Z,96752.11
2018-11-04T02:41:40.285Z,96745.89
2018-11-04T02:44:09.928Z,96748.95
2018-11-04T02:46:37.182Z,96745.05
2018-11-04T02:49:04.724Z,96750.73
2018-11-04T02:51:33.150Z,96747.09
2018-11-04T02:54:02.882Z,96752.30
2018-11-04T02:56:32.501Z,96763.54
2018-11-04T02:59:00.644Z,96759.55
2018-11-04T03:01:28.037Z,96754.89
2018-11-04T03:03:55.634Z,96745.29
2018-11-04T03:06:23.128Z,96742.78
2018-11-04T03:08:50.569Z,96735.16
2018-11-04T03:11:20.176Z,96733.47
2018-11-04T03:13:47.694Z,96729.92
2018-11-04T03:16:15.130Z,96724.55
2018-11-04T03:18:43.224Z,96725.98
2018-11-04T03:21:14.147Z,96733.98
2018-11-04T03:23:42.727Z,96732.30
2018-11-04T03:26:12.466Z,96732.62
2018-11-04T03:28:39.789Z,96731.77
2018-11-04T03:31:07.379Z,96723.02
2018-11-04T03:33:37.190Z,96728.94
2018-11-04T03:36:07.822Z,96720.97
2018-11-04T03:38:35.417Z,96725.03
2018-11-04T03:41:02.671Z,96727.05
2018-11-04T03:43:31.954Z,96725.24
2018-11-04T03:46:00.432Z,96724.34
2018-11-04T03:48:27.804Z,96717.20
2018-11-04T03:50:56.585Z,96713.56
2018-11-04T03:53:24.064Z,96709.95
2018-11-04T03:55:51.389Z,96705.69
2018-11-04T03:58:19.861Z,96700.86
2018-11-04T04:00:48.058Z,96701.26
2018-11-04T04:03:16.033Z,96707.42
2018-11-04T04:05:43.592Z,96715.79
2018-11-04T04:08:10.996Z,96717.83
2018-11-04T04:10:38.793Z,96719.11
2018-11-04T04:13:06.337Z,96710.09
2018-11-04T04:15:35.964Z,96709.45
2018-11-04T04:18:03.213Z,96711.89
2018-11-04T04:20:32.810Z,96707.16
2018-11-04T04:23:00.200Z,96702.23
2018-11-04T04:25:27.655Z,96698.55
2018-11-04T04:27:56.021Z,96686.84
2018-11-04T04:30:23.309Z,96684.25
2018-11-04T04:32:51.606Z,96684.78
2018-11-04T04:35:19.752Z,96684.33
2018-11-04T04:37:48.279Z,96670.47
2018-11-04T04:40:18.659Z,96675.59
2018-11-04T04:44:11.510Z,96675.30
2018-11-04T04:46:40.094Z,96678.08
2018-11-04T04:49:08.736Z,96680.77
2018-11-04T04:51:36.646Z,96673.99
2018-11-04T04:54:04.382Z,96671.59
2018-11-04T04:56:32.944Z,96659.70
2018-11-04T04:59:00.420Z,96665.26
2018-11-04T05:01:29.061Z,96664.90
2018-11-04T05:03:56.713Z,96664.73
2018-11-04T05:07:54.956Z,96656.16
2018-11-04T05:10:23.710Z,96646.77
2018-11-04T05:12:52.666Z,96649.49
2018-11-04T05:15:20.263Z,96647.18
2018-11-04T05:17:48.326Z,96646.61
2018-11-04T05:20:16.647Z,96652.55
2018-11-04T05:22:44.071Z,96651.62
2018-11-04T05:25:12.179Z,96660.36
2018-11-04T05:27:40.796Z,96657.47
2018-11-04T05:30:11.831Z,96657.30
2018-11-04T05:32:40.417Z,96651.16
2018-11-04T05:35:09.905Z,96654.87
2018-11-04T05:37:39.219Z,96648.56
2018-11-04T05:40:06.975Z,96648.00
2018-11-04T05:42:36.591Z,96643.73
2018-11-04T05:45:04.322Z,96638.89
2018-11-04T05:47:32.125Z,96634.25
2018-11-04T05:50:00.764Z,96626.73
2018-11-04T05:52:28.104Z,96638.89
2018-11-04T05:54:56.637Z,96631.08
2018-11-04T05:57:23.903Z,96628.48
2018-11-04T05:59:52.758Z,96624.20
2018-11-04T06:02:20.368Z,96609.90
2018-11-04T06:04:47.946Z,96617.42
2018-11-04T06:07:15.542Z,96621.41
2018-11-04T06:09:42.949Z,96625.31
2018-11-04T06:12:11.099Z,96629.98
2018-11-04T06:14:38.534Z,96629.61
2018-11-04T06:17:05.891Z,96604.04
2018-11-04T06:19:34.905Z,96634.98
2018-11-04T06:22:03.041Z,96632.58
2018-11-04T06:24:32.151Z,96627.46
2018-11-04T06:26:59.512Z,96629.12
2018-11-04T06:29:26.813Z,96638.52
2018-11-04T06:31:55.587Z,96646.23
2018-11-04T06:34:24.125Z,96645.95
2018-11-04T06:36:51.650Z,96642.98
2018-11-04T06:39:19.832Z,96645.20
2018-11-04T06:41:47.383Z,96644.56
2018-11-04T06:44:15.735Z,96650.78
2018-11-04T06:46:43.295Z,96648.17
2018-11-04T06:49:10.653Z,96665.80
2018-11-04T06:51:38.451Z,96664.58
2018-11-04T06:54:09.058Z,96663.39
2018-11-04T06:56:36.596Z,96664.69
2018-11-04T06:59:04.025Z,96662.09
2018-11-04T07:01:31.430Z,96661.61
2018-11-04T07:04:10.074Z,96655.67
2018-11-04T07:06:37.885Z,96659.12
2018-11-04T07:09:06.959Z,96659.66
2018-11-04T07:11:35.916Z,96654.67
2018-11-04T07:14:03.392Z,96650.69
2018-11-04T07:16:30.884Z,96646.87
2018-11-04T07:19:00.466Z,96650.15
2018-11-04T07:21:28.586Z,96638.84
2018-11-04T07:23:57.653Z,96638.69
2018-11-04T07:26:25.323Z,96649.41
2018-11-04T07:28:54.296Z,96646.65
2018-11-04T07:31:23.428Z,96641.30
2018-11-04T07:33:51.418Z,96654.67
2018-11-04T07:36:18.849Z,96653.07
2018-11-04T07:38:47.238Z,96658.12
2018-11-04T07:41:16.140Z,96667.38
2018-11-04T07:43:47.213Z,96661.27
2018-11-04T07:46:15.026Z,96660.87
2018-11-04T07:48:45.351Z,96655.51
2018-11-04T07:51:13.831Z,96645.77
2018-11-04T07:53:42.810Z,96650.03
2018-11-04T07:56:10.232Z,96642.88
2018-11-04T07:58:39.436Z,96641.23
2018-11-04T08:01:15.379Z,96644.39
2018-11-04T08:03:45.088Z,96637.31
2018-11-04T08:06:12.607Z,96639.93
2018-11-04T08:08:40.031Z,96638.24
2018-11-04T08:11:07.811Z,96637.66
2018-11-04T08:13:37.452Z,96632.03
2018-11-04T08:16:05.544Z,96632.69
2018-11-04T08:18:34.121Z,96636.40
2018-11-04T08:21:01.624Z,96639.81
2018-11-04T08:23:30.475Z,96639.06
2018-11-04T08:25:59.059Z,96631.63
2018-11-04T08:28:27.490Z,96626.72
2018-11-04T08:30:54.973Z,96624.70
2018-11-04T08:33:22.342Z,96617.98
2018-11-04T08:35:51.973Z,96623.48
2018-11-04T08:38:19.275Z,96631.75
2018-11-04T08:40:49.443Z,96635.82
2018-11-04T08:43:17.971Z,96626.92
2018-11-04T08:45:47.746Z,96608.78
2018-11-04T08:48:15.948Z,96602.75
2018-11-04T08:50:43.446Z,96613.60
2018-11-04T08:53:12.632Z,96618.34
2018-11-04T08:55:39.995Z,96622.67
2018-11-04T08:58:09.614Z,96615.68
2018-11-04T09:00:39.054Z,96625.61
2018-11-04T09:03:06.397Z,96623.95
2018-11-04T09:05:36.021Z,96614.15
2018-11-04T09:08:06.438Z,96609.80
2018-11-04T09:10:34.086Z,96611.39
2018-11-04T09:13:01.462Z,96606.64
2018-11-04T09:15:30.661Z,96605.06
2018-11-04T09:17:58.758Z,96597.91
2018-11-04T09:20:26.340Z,96591.69
2018-11-04T09:22:53.805Z,96586.77
2018-11-04T09:25:22.492Z,96594.00
2018-11-04T09:27:50.026Z,96585.53
2018-11-04T09:30:17.502Z,96587.03
2018-11-04T09:32:45.034Z,96589.81
2018-11-04T09:35:14.148Z,96586.85
2018-11-04T09:37:41.652Z,96577.38
2018-11-04T09:40:10.735Z,96575.98
2018-11-04T09:42:38.380Z,96565.80
2018-11-04T09:45:06.918Z,96572.41
2018-11-04T09:47:36.504Z,96575.27
2018-11-04T09:50:04.697Z,96574.19
2018-11-04T09:52:34.864Z,96565.27
2018-11-04T09:55:02.357Z,96561.14
2018-11-04T09:57:30.499Z,96567.06
2018-11-04T09:59:59.070Z,96570.50
2018-11-04T10:02:29.909Z,96578.26
2018-11-04T10:04:57.378Z,96570.45
2018-11-04T10:07:25.368Z,96565.22
2018-11-04T10:09:53.274Z,96563.81
2018-11-04T10:12:20.843Z,96560.77
2018-11-04T10:14:50.407Z,96553.50
2018-11-04T10:17:17.939Z,96551.97
2018-11-04T10:19:46.846Z,96547.87
2018-11-04T10:22:40.640Z,96547.31
2018-11-04T10:25:10.326Z,96529.17
2018-11-04T10:27:38.350Z,96510.29
2018-11-04T10:30:13.199Z,96516.05
2018-11-04T10:32:43.512Z,96513.50
2018-11-04T10:35:12.380Z,96506.03
2018-11-04T10:37:44.587Z,96511.81
2018-11-04T10:40:14.179Z,96518.61
2018-11-04T10:42:41.499Z,96508.97
2018-11-04T10:45:14.612Z,96363.97
2018-11-04T10:47:42.060Z,96499.92
2018-11-04T10:50:10.540Z,96495.52
2018-11-04T10:52:41.797Z,96496.44
2018-11-04T10:55:11.289Z,96498.34
2018-11-04T10:57:39.612Z,96495.52
2018-11-04T11:00:14.187Z,96495.36
2018-11-04T11:02:41.641Z,96481.32
2018-11-04T11:05:09.130Z,96485.94
2018-11-04T11:07:37.068Z,96484.64
2018-11-04T11:10:07.839Z,96479.91
2018-11-04T11:12:36.705Z,96479.03
2018-11-04T11:15:05.323Z,96486.11
2018-11-04T11:17:34.051Z,96487.37
2018-11-04T11:20:04.576Z,96477.59
2018-11-04T11:22:33.998Z,96480.70
2018-11-04T11:25:01.451Z,96474.79
2018-11-04T11:27:30.004Z,96469.53
2018-11-04T11:29:58.747Z,96470.45
2018-11-04T11:32:26.504Z,96457.37
2018-11-04T11:34:53.883Z,96437.23
2018-11-04T11:37:23.107Z,96451.00
2018-11-04T11:39:52.084Z,96445.98
2018-11-04T11:42:20.373Z,96442.86
2018-11-04T11:44:49.673Z,96429.81
2018-11-04T11:47:17.234Z,96436.78
2018-11-04T11:49:45.329Z,96435.17
2018-11-04T11:52:12.985Z,96436.89
2018-11-04T11:54:40.300Z,96428.45
2018-11-04T11:57:07.841Z,96416.05
2018-11-04T11:59:37.640Z,96414.99
2018-11-04T12:02:05.070Z,96420.86
2018-11-04T12:04:32.778Z,96432.33
2018-11-04T12:07:04.908Z,96423.46
2018-11-04T12:09:37.279Z,96419.90
2018-11-04T12:12:06.600Z,96416.61
2018-11-04T12:14:34.762Z,96411.13
2018-11-04T12:17:04.608Z,96401.97
2018-11-04T12:19:32.955Z,96399.72
2018-11-04T12:22:01.767Z,96399.34
2018-11-04T12:24:30.937Z,96390.37
2018-11-04T12:27:01.871Z,96386.39
2018-11-04T12:29:30.634Z,96389.83
2018-11-04T12:32:00.341Z,96387.20
2018-11-04T12:34:29.895Z,96388.50
2018-11-04T12:36:58.214Z,96380.66
2018-11-04T12:40:50.123Z,96373.66
2018-11-04T12:43:19.509Z,96366.98
2018-11-04T12:45:49.795Z,96376.76
2018-11-04T12:48:19.291Z,96369.03
2018-11-04T12:50:48.090Z,96369.47
2018-11-04T12:53:15.582Z,96368.52
2018-11-04T12:55:43.136Z,96357.91
2018-11-04T12:58:13.163Z,96352.42
2018-11-04T13:00:41.600Z,96348.76
2018-11-04T13:03:09.274Z,96348.15
2018-11-04T13:05:36.913Z,96344.84
2018-11-04T13:08:04.810Z,96325.78
2018-11-04T13:10:32.270Z,96332.83
2018-11-04T13:12:59.946Z,96330.29
2018-11-04T13:15:28.117Z,96314.52
2018-11-04T13:17:55.629Z,96318.59
2018-11-04T13:20:23.397Z,96316.47
2018-11-04T13:22:50.849Z,96314.39
2018-11-04T13:25:18.239Z,96303.44
2018-11-04T13:27:45.772Z,96296.80
2018-11-04T13:30:14.780Z,96300.16
2018-11-04T13:32:42.339Z,96304.83
2018-11-04T13:35:11.991Z,96299.33
2018-11-04T13:37:39.732Z,96306.30
2018-11-04T13:40:08.506Z,96301.84
2018-11-04T13:42:36.052Z,96301.23
2018-11-04T13:45:03.556Z,96298.95
2018-11-04T13:47:31.580Z,96286.59
2018-11-04T13:50:00.001Z,96293.80
2018-11-04T13:52:27.544Z,96289.70
2018-11-04T13:54:55.817Z,96289.61
2018-11-04T13:57:25.424Z,96288.19
2018-11-04T13:59:52.882Z,96287.87
2018-11-04T14:02:20.241Z,96287.38
2018-11-04T14:04:48.456Z,96293.48
2018-11-04T14:07:16.723Z,96298.13
2018-11-04T14:09:46.480Z,96302.44
2018-11-04T14:12:17.814Z,96307.44
2018-11-04T14:14:45.251Z,96318.98
2018-11-04T14:17:15.500Z,96315.59
2018-11-04T14:19:45.936Z,96306.36
2018-11-04T14:22:13.444Z,96295.51
2018-11-04T14:24:42.004Z,96291.88
2018-11-04T14:27:09.667Z,96296.05
2018-11-04T14:29:37.740Z,96292.13
2018-11-04T14:32:05.473Z,96293.96
2018-11-04T14:34:35.049Z,96284.13
2018-11-04T14:37:02.600Z,96280.96
2018-11-04T14:39:30.673Z,96280.50
2018-11-04T14:42:01.920Z,96279.61
2018-11-04T14:44:32.216Z,96272.01
2018-11-04T14:46:59.740Z,96263.27
2018-11-04T14:49:31.085Z,96263.77
2018-11-04T14:51:58.787Z,96257.74
2018-11-04T14:54:27.151Z,96262.92
2018-11-04T14:56:55.725Z,96267.10
2018-11-04T14:59:23.385Z,96267.13
2018-11-04T15:01:51.279Z,96252.55
2018-11-04T15:04:20.138Z,96245.86
2018-11-04T15:06:47.594Z,96243.94
2018-11-04T15:09:15.117Z,96248.01
2018-11-04T15:11:45.129Z,96244.79
2018-11-04T15:14:13.778Z,96254.78
2018-11-04T15:16:42.139Z,96248.02
2018-11-04T15:19:10.086Z,96241.86
2018-11-04T15:21:42.660Z,96243.96
2018-11-04T15:24:17.234Z,96243.91
2018-11-04T15:26:46.368Z,96243.06
2018-11-04T15:29:16.970Z,96242.39
2018-11-04T15:31:47.801Z,96236.55
2018-11-04T15:34:15.367Z,96239.88
2018-11-04T15:36:42.926Z,96237.38
2018-11-04T15:39:13.787Z,96248.67
2018-11-04T15:41:41.504Z,96245.09
2018-11-04T15:44:14.107Z,96244.47
2018-11-04T15:46:41.947Z,96239.73
2018-11-04T15:49:11.342Z,96233.72
2018-11-04T15:51:39.544Z,96233.39
2018-11-04T15:54:07.787Z,96243.28
2018-11-04T15:56:35.502Z,96247.45
2018-11-04T15:59:03.134Z,96247.02
2018-11-04T16:01:30.611Z,96241.88
2018-11-04T16:03:59.337Z,96232.55
2018-11-04T16:06:26.889Z,96247.21
2018-11-04T16:08:54.352Z,96240.30
2018-11-04T16:11:23.475Z,96235.52
2018-11-04T16:13:51.416Z,96239.78
2018-11-04T16:16:19.304Z,96240.30
2018-11-04T16:18:47.375Z,96235.94
2018-11-04T16:21:16.330Z,96237.08
2018-11-04T16:23:43.928Z,96235.27
2018-11-04T16:26:11.372Z,96230.38
2018-11-04T16:28:42.774Z,96235.67
2018-11-04T16:31:10.832Z,96231.12
2018-11-04T16:33:41.462Z,96228.87
2018-11-04T16:36:09.243Z,96230.34
2018-11-04T16:38:36.950Z,96228.83
2018-11-04T16:41:07.334Z,96226.00
2018-11-04T16:43:34.886Z,96201.06
2018-11-04T16:46:03.693Z,96223.82
2018-11-04T16:48:35.864Z,96219.82
2018-11-04T16:51:03.896Z,96215.78
2018-11-04T16:53:31.927Z,96221.55
2018-11-04T16:55:59.584Z,96216.12
2018-11-04T16:58:27.724Z,96210.64
2018-11-04T17:00:55.319Z,96217.80
2018-11-04T17:03:23.742Z,96225.28
2018-11-04T17:05:53.990Z,96226.83
2018-11-04T17:08:21.431Z,96215.39
2018-11-04T17:10:51.076Z,96215.80
2018-11-04T17:13:19.315Z,96223.33
2018-11-04T17:15:46.784Z,96218.57
2018-11-04T17:18:14.393Z,96210.14
2018-11-04T17:20:42.583Z,96210.41
2018-11-04T17:23:12.949Z,96206.74
2018-11-04T17:25:40.415Z,96201.23
2018-11-04T17:28:09.104Z,96203.06
2018-11-04T17:30:36.579Z,96198.89
2018-11-04T17:33:05.097Z,96200.72
2018-11-04T17:35:33.362Z,96200.36
2018-11-04T17:38:00.925Z,96206.20
2018-11-04T17:40:28.657Z,96214.50
2018-11-04T17:42:55.989Z,96204.19
2018-11-04T17:45:23.857Z,96192.56
2018-11-04T17:47:52.702Z,96183.19
2018-11-04T17:50:22.537Z,96198.00
2018-11-04T17:52:49.958Z,96192.39
2018-11-04T17:55:19.480Z,96188.80
2018-11-04T17:57:49.407Z,96190.68
2018-11-04T18:00:23.948Z,96191.41
2018-11-04T18:03:04.925Z,96194.14
2018-11-04T18:05:34.855Z,96189.16
2018-11-04T18:08:02.314Z,96184.49
2018-11-04T18:10:30.045Z,96177.14
2018-11-04T18:12:59.758Z,96176.09
2018-11-04T18:15:27.968Z,96177.34
2018-11-04T18:17:56.407Z,96174.48
2018-11-04T18:20:25.541Z,96176.06
2018-11-04T18:22:54.469Z,96186.92
2018-11-04T18:25:22.955Z,96187.36
2018-11-04T18:27:50.348Z,96190.81
2018-11-04T18:30:21.428Z,96188.05
2018-11-04T18:32:49.936Z,96184.95
2018-11-04T18:35:17.514Z,96185.58
2018-11-04T18:37:45.086Z,96189.38
2018-11-04T18:40:14.427Z,96199.25
2018-11-04T18:42:42.178Z,96173.82
2018-11-04T18:45:14.194Z,96189.83
2018-11-04T18:47:41.573Z,96184.23
2018-11-04T18:50:13.046Z,96186.88
2018-11-04T18:52:41.494Z,96177.72
2018-11-04T18:55:10.050Z,96171.84
2018-11-04T18:57:37.680Z,96162.43
2018-11-04T19:00:10.888Z,96160.28
2018-11-04T19:02:46.376Z,96165.58
2018-11-04T19:05:35.317Z,96165.44
2018-11-04T19:08:03.877Z,96165.98
2018-11-04T19:10:38.849Z,96168.94
2018-11-04T19:13:13.037Z,96163.20
2018-11-04T19:16:08.536Z,96161.54
2018-11-04T19:18:36.641Z,96163.52
2018-11-04T19:21:09.172Z,96165.80
2018-11-04T19:23:36.672Z,96164.59
2018-11-04T19:26:07.967Z,96164.81
2018-11-04T19:28:35.531Z,96167.77
2018-11-04T19:31:02.780Z,96168.41
2018-11-04T19:33:30.259Z,96161.19
2018-11-04T19:35:58.340Z,96157.42
2018-11-04T19:38:26.733Z,96155.22
2018-11-04T19:40:54.947Z,96152.22
2018-11-04T19:43:22.900Z,96148.98
2018-11-04T19:45:59.226Z,96159.52
2018-11-04T19:48:27.822Z,96170.43
2018-11-04T19:51:00.426Z,96165.63
2018-11-04T19:53:53.472Z,96162.67
2018-11-04T19:56:24.652Z,96153.69
2018-11-04T19:58:52.349Z,96154.36
2018-11-04T20:01:21.051Z,96143.65
2018-11-04T20:03:51.334Z,96136.97
2018-11-04T20:06:33.588Z,96133.97
2018-11-04T20:09:09.280Z,96125.22
2018-11-04T20:11:36.941Z,96129.30
2018-11-04T20:14:12.953Z,96130.19
2018-11-04T20:16:41.843Z,96129.92
2018-11-04T20:19:15.625Z,96129.70
2018-11-04T20:21:44.916Z,96114.61
2018-11-04T20:24:23.051Z,96143.86
2018-11-04T20:26:51.482Z,96141.45
2018-11-04T20:29:19.798Z,96145.09
2018-11-04T20:31:53.439Z,96136.20
2018-11-04T20:34:30.097Z,96131.41
2018-11-04T20:37:16.242Z,96119.78
2018-11-04T20:39:50.064Z,96122.48
2018-11-04T20:42:20.500Z,96122.27
2018-11-04T20:45:04.957Z,96115.77
2018-11-04T20:47:41.697Z,96119.82
2018-11-04T20:50:19.041Z,96124.93
2018-11-04T20:52:47.607Z,96121.98
2018-11-04T20:55:31.802Z,96130.49
2018-11-04T20:57:59.345Z,96122.84
2018-11-04T21:00:35.917Z,96117.37
2018-11-04T21:03:04.009Z,96109.47
2018-11-04T21:05:31.339Z,96104.12
2018-11-04T21:08:03.513Z,96101.52
2018-11-04T21:10:36.277Z,96097.71
2018-11-04T21:13:03.642Z,96107.33
2018-11-04T21:15:35.963Z,96105.70
2018-11-04T21:18:06.951Z,96093.56
2018-11-04T21:20:44.796Z,96082.59
2018-11-04T21:23:13.057Z,96086.73
2018-11-04T21:25:43.222Z,96086.20
2018-11-04T21:28:12.770Z,96094.73
2018-11-04T21:30:40.882Z,96089.59
2018-11-04T21:33:09.962Z,96082.73
2018-11-04T21:35:38.293Z,96075.54
2018-11-04T21:38:05.938Z,96073.36
2018-11-04T21:40:39.352Z,96078.98
2018-11-04T21:43:08.045Z,96071.90
2018-11-04T21:45:37.710Z,96068.00
2018-11-04T21:48:09.695Z,96062.34
2018-11-04T21:50:38.552Z,96059.57
2018-11-04T21:53:06.077Z,96060.45
2018-11-04T21:55:33.668Z,96051.59
2018-11-04T21:58:00.976Z,96046.64
2018-11-04T22:00:31.242Z,96053.25
2018-11-04T22:02:59.159Z,96061.39
2018-11-04T22:05:26.666Z,96063.22
2018-11-04T22:07:55.047Z,96061.06
2018-11-04T22:10:22.582Z,96071.83
2018-11-04T22:12:52.258Z,96061.36
2018-11-04T22:15:20.126Z,96059.15
2018-11-04T22:17:48.723Z,96056.97
2018-11-04T22:20:17.162Z,96048.94
2018-11-04T22:22:46.780Z,96039.18
2018-11-04T22:25:14.799Z,96038.30
2018-11-04T22:27:45.033Z,96038.91
2018-11-04T22:30:12.958Z,96039.70
2018-11-04T22:32:41.097Z,96043.24
2018-11-04T22:35:10.251Z,96045.75
2018-11-04T22:37:38.374Z,96038.92
2018-11-04T22:40:08.568Z,96040.78
2018-11-04T22:42:37.207Z,96050.98
2018-11-04T22:45:13.502Z,96042.83
2018-11-04T22:47:42.538Z,96036.84
2018-11-04T22:50:15.097Z,96033.72
2018-11-04T22:52:42.914Z,96034.24
2018-11-04T22:55:11.724Z,96029.04
2018-11-04T22:58:01.172Z,96027.70
2018-11-04T23:00:34.750Z,96032.61
2018-11-04T23:03:02.365Z,96033.58
2018-11-04T23:05:30.537Z,96030.16
2018-11-04T23:07:57.828Z,96020.70
2018-11-04T23:10:25.949Z,96010.65
2018-11-04T23:12:53.943Z,96001.98
2018-11-04T23:15:21.276Z,96006.93
2018-11-04T23:17:48.638Z,96006.34
2018-11-04T23:20:16.038Z,95999.03
2018-11-04T23:22:44.204Z,95994.55
2018-11-04T23:25:13.128Z,95999.75
2018-11-04T23:27:41.496Z,95997.50
2018-11-04T23:30:10.905Z,95993.77
2018-11-04T23:32:39.143Z,95997.15
2018-11-04T23:35:09.613Z,95995.97
2018-11-04T23:37:37.147Z,95993.63
2018-11-04T23:40:04.996Z,95983.52
2018-11-04T23:42:33.297Z,95992.92
2018-11-04T23:45:00.691Z,95993.72
2018-11-04T23:47:28.081Z,95992.43
2018-11-04T23:49:55.552Z,95996.38
2018-11-04T23:52:24.135Z,96000.37
2018-11-04T23:54:51.631Z,95994.45
2018-11-04T23:57:21.684Z,95993.47
2018-11-04T23:59:51.796Z,95993.47
